Time;durP1;ratioP1;P1;durP2;ratioP2;P2;SDS_P1;SDS_P2;PMS_P1;PMS_P2;Temp;Humidity;BMP_temperature;BMP_pressure;BME280_temperature;BME280_humidity;BME280_pressure;Samples;Min_cycle;Max_cycle;Signal;HPM_P1;HPM_P2
2023/01/30 00:01:03;;;;;;;6.23;3.40;;;9.50;99.90;;;;;;5016532;28;20214;-71
2023/01/30 00:03:30;;;;;;;7.13;1.37;;;9.50;99.90;;;;;;5013886;28;20228;-72
2023/01/30 00:05:57;;;;;;;2.97;1.77;;;9.40;99.90;;;;;;4996817;28;20195;-72
2023/01/30 00:08:23;;;;;;;28.57;14.73;;;9.40;99.90;;;;;;5026245;28;20184;-72
2023/01/30 00:10:50;;;;;;;18.77;10.10;;;9.40;99.90;;;;;;4996232;28;20738;-72
2023/01/30 00:13:16;;;;;;;6.23;2.27;;;9.40;99.90;;;;;;5001606;28;20789;-72
2023/01/30 00:15:44;;;;;;;4.10;1.33;;;9.30;99.90;;;;;;5020458;28;20585;-72
2023/01/30 00:18:11;;;;;;;4.53;1.00;;;9.30;99.90;;;;;;5020384;28;20191;-71
2023/01/30 00:20:38;;;;;;;2.33;1.03;;;9.30;99.90;;;;;;4999037;28;20601;-72
2023/01/30 00:23:05;;;;;;;3.77;0.90;;;9.30;99.90;;;;;;4981411;28;20235;-72
2023/01/30 00:25:32;;;;;;;1.60;0.80;;;9.30;99.90;;;;;;4990209;28;20545;-73
2023/01/30 00:28:02;;;;;;;3.00;1.10;;;9.30;99.90;;;;;;5011572;28;20311;-71
2023/01/30 00:30:29;;;;;;;2.43;0.90;;;9.40;99.90;;;;;;5007466;28;21337;-72
2023/01/30 00:33:05;;;;;;;3.17;0.93;;;9.40;99.90;;;;;;5013933;28;20792;-71
2023/01/30 00:35:31;;;;;;;3.43;0.80;;;9.40;99.90;;;;;;4991846;28;20801;-72
2023/01/30 00:38:00;;;;;;;2.70;0.90;;;9.40;99.90;;;;;;5015118;28;20185;-71
2023/01/30 00:40:31;;;;;;;3.70;1.30;;;9.30;99.90;;;;;;5009009;28;20219;-71
2023/01/30 00:48:33;;;;;;;3.83;0.90;;;9.30;99.90;;;;;;4991702;28;20188;-72
2023/01/30 00:51:00;;;;;;;1.43;1.00;;;9.30;99.90;;;;;;5020141;28;20193;-71
2023/01/30 00:53:27;;;;;;;2.47;0.80;;;9.20;99.90;;;;;;5022891;28;20581;-71
2023/01/30 00:55:55;;;;;;;1.77;1.00;;;9.20;99.90;;;;;;5009421;28;20557;-72
2023/01/30 00:58:26;;;;;;;3.73;1.10;;;9.30;99.90;;;;;;5007609;28;20216;-72
2023/01/30 01:00:54;;;;;;;5.93;1.27;;;9.20;99.90;;;;;;5008695;28;20243;-72
2023/01/30 01:03:21;;;;;;;3.17;1.00;;;9.20;99.90;;;;;;5011100;28;20187;-72
2023/01/30 01:05:51;;;;;;;2.10;0.97;;;9.10;99.90;;;;;;5008253;28;20188;-71
2023/01/30 01:08:25;;;;;;;5.43;1.03;;;9.10;99.90;;;;;;5004023;28;20191;-71
2023/01/30 01:10:55;;;;;;;2.80;1.27;;;9.10;99.90;;;;;;5022755;28;20773;-72
2023/01/30 01:13:24;;;;;;;4.47;1.30;;;9.00;99.90;;;;;;5009427;28;20191;-71
2023/01/30 01:15:52;;;;;;;2.97;0.90;;;8.90;99.90;;;;;;5030230;28;20768;-72
2023/01/30 01:18:22;;;;;;;3.63;1.30;;;9.00;99.90;;;;;;5011477;28;20188;-71
2023/01/30 01:20:50;;;;;;;4.50;1.27;;;9.00;99.90;;;;;;5022566;28;20207;-72
2023/01/30 01:23:17;;;;;;;2.67;0.70;;;9.00;99.90;;;;;;5017524;28;20195;-72
2023/01/30 01:25:50;;;;;;;4.50;1.10;;;9.00;99.90;;;;;;5010093;28;20593;-72
2023/01/30 01:28:20;;;;;;;2.17;0.77;;;9.00;99.90;;;;;;5009887;28;20596;-72
2023/01/30 01:30:50;;;;;;;2.87;1.33;;;9.00;99.90;;;;;;5007472;28;20219;-71
2023/01/30 01:33:32;;;;;;;3.03;1.10;;;9.00;99.90;;;;;;5002034;28;20207;-71
2023/01/30 01:36:01;;;;;;;5.77;1.07;;;9.00;99.90;;;;;;5009166;28;20255;-71
2023/01/30 01:38:38;;;;;;;3.57;1.20;;;9.10;99.90;;;;;;5009893;28;20189;-72
2023/01/30 01:41:05;;;;;;;3.57;1.10;;;9.10;99.90;;;;;;4998027;28;20212;-72
2023/01/30 01:44:15;;;;;;;2.57;0.90;;;9.10;99.90;;;;;;4992435;28;20600;-72
2023/01/30 01:47:04;;;;;;;3.10;1.00;;;9.10;99.90;;;;;;4994124;28;20191;-71
2023/01/30 01:49:42;;;;;;;3.07;0.90;;;9.20;99.90;;;;;;5025545;28;20169;-72
2023/01/30 01:52:15;;;;;;;2.63;1.00;;;9.20;99.90;;;;;;5004834;28;20180;-71
2023/01/30 01:55:05;;;;;;;3.23;1.00;;;9.10;99.90;;;;;;5027373;28;20750;-72
2023/01/30 01:57:50;;;;;;;4.27;1.07;;;9.10;99.90;;;;;;5015907;28;20530;-71
2023/01/30 02:00:20;;;;;;;2.03;1.10;;;9.10;99.90;;;;;;5019801;28;20239;-72
2023/01/30 02:03:10;;;;;;;1.70;0.90;;;9.00;99.90;;;;;;4997583;28;20184;-71
2023/01/30 02:05:50;;;;;;;4.10;1.10;;;9.00;99.90;;;;;;5023678;28;20558;-71
2023/01/30 02:08:49;;;;;;;4.83;1.27;;;9.00;99.90;;;;;;5011287;28;20189;-72
2023/01/30 02:11:42;;;;;;;2.57;1.37;;;9.00;99.90;;;;;;5009441;28;20711;-71
2023/01/30 02:14:14;;;;;;;2.00;1.10;;;8.90;99.90;;;;;;5008219;28;20199;-72
2023/01/30 02:16:48;;;;;;;7.10;1.30;;;9.00;99.90;;;;;;5007246;28;20184;-71
2023/01/30 02:20:16;;;;;;;2.67;1.07;;;9.00;99.90;;;;;;5012937;28;20250;-71
2023/01/30 02:23:22;;;;;;;2.97;1.00;;;8.90;99.90;;;;;;4943300;28;20202;-71
2023/01/30 02:26:25;;;;;;;14.67;1.43;;;8.90;99.90;;;;;;5010784;28;20176;-70
2023/01/30 02:29:19;;;;;;;3.27;1.10;;;8.80;99.90;;;;;;5019517;28;20771;-71
2023/01/30 02:32:04;;;;;;;4.57;0.97;;;8.90;99.90;;;;;;5022269;28;20196;-70
2023/01/30 02:35:00;;;;;;;6.73;1.20;;;8.80;99.90;;;;;;5024709;28;20588;-70
2023/01/30 02:38:06;;;;;;;4.20;0.83;;;8.80;99.90;;;;;;4997232;28;20288;-70
2023/01/30 02:40:51;;;;;;;2.13;1.10;;;8.80;99.90;;;;;;5007461;28;20226;-71
2023/01/30 02:43:46;;;;;;;2.67;1.10;;;8.90;99.90;;;;;;4998658;28;20184;-71
2023/01/30 02:46:43;;;;;;;2.13;1.00;;;8.90;99.90;;;;;;5014750;28;20216;-70
2023/01/30 02:49:32;;;;;;;2.53;1.10;;;8.80;99.90;;;;;;5002579;28;20872;-70
2023/01/30 02:52:09;;;;;;;4.70;1.10;;;8.80;99.90;;;;;;5022682;28;20194;-70
2023/01/30 02:54:35;;;;;;;4.00;1.17;;;8.70;99.90;;;;;;5024939;28;20179;-71
2023/01/30 02:57:15;;;;;;;2.17;1.10;;;8.70;99.90;;;;;;5020941;28;20181;-71
2023/01/30 02:59:52;;;;;;;2.37;1.00;;;8.80;99.90;;;;;;4998174;28;20291;-71
2023/01/30 03:03:09;;;;;;;3.73;0.80;;;8.80;99.90;;;;;;5024775;28;20546;-70
2023/01/30 03:06:10;;;;;;;2.70;1.20;;;8.80;99.90;;;;;;5016640;28;20177;-71
2023/01/30 03:09:05;;;;;;;2.23;1.10;;;8.80;99.90;;;;;;5025911;28;20214;-70
2023/01/30 03:12:01;;;;;;;3.77;1.00;;;8.70;99.90;;;;;;5027069;28;20195;-70
2023/01/30 03:15:02;;;;;;;2.47;0.87;;;8.70;99.90;;;;;;5025219;28;20189;-70
2023/01/30 03:17:33;;;;;;;1.33;0.80;;;8.80;99.90;;;;;;5017385;28;20187;-71
2023/01/30 03:20:03;;;;;;;2.20;1.00;;;8.80;99.90;;;;;;5024300;28;20219;-71
2023/01/30 03:22:29;;;;;;;4.40;1.07;;;8.90;99.90;;;;;;5007072;28;20597;-70
2023/01/30 03:25:00;;;;;;;3.60;1.20;;;8.90;99.90;;;;;;5021504;28;20355;-71
2023/01/30 03:27:34;;;;;;;4.40;1.10;;;8.90;99.90;;;;;;5025297;28;20647;-71
2023/01/30 03:30:08;;;;;;;1.40;0.90;;;8.80;99.90;;;;;;5006373;28;20277;-70
2023/01/30 03:32:38;;;;;;;2.27;1.30;;;8.90;99.90;;;;;;5025260;28;20753;-70
2023/01/30 03:35:08;;;;;;;2.17;0.90;;;8.90;99.90;;;;;;5017015;28;20197;-70
2023/01/30 03:37:39;;;;;;;1.47;0.93;;;8.90;99.90;;;;;;5035438;28;20230;-70
2023/01/30 03:40:15;;;;;;;3.87;1.20;;;8.90;99.90;;;;;;5045864;28;20306;-71
2023/01/30 03:42:42;;;;;;;1.83;1.00;;;8.90;99.90;;;;;;5034705;28;20287;-70
2023/01/30 03:45:15;;;;;;;5.97;1.30;;;8.90;99.90;;;;;;5025932;28;20701;-71
2023/01/30 03:47:44;;;;;;;3.33;1.07;;;8.90;99.90;;;;;;5025337;28;20616;-71
2023/01/30 03:50:12;;;;;;;1.67;0.90;;;8.90;99.90;;;;;;5006385;28;20471;-70
2023/01/30 03:52:39;;;;;;;1.60;1.00;;;8.90;99.90;;;;;;5007291;28;20203;-71
2023/01/30 03:55:13;;;;;;;6.27;1.20;;;8.90;99.90;;;;;;5020486;28;20195;-71
2023/01/30 03:57:40;;;;;;;2.47;0.90;;;8.90;99.90;;;;;;5026457;28;20522;-71
2023/01/30 04:00:15;;;;;;;4.63;1.07;;;8.90;99.90;;;;;;5024879;28;20542;-71
2023/01/30 04:02:45;;;;;;;4.93;1.20;;;8.90;99.90;;;;;;5024482;28;20195;-70
2023/01/30 04:05:14;;;;;;;1.93;1.00;;;9.00;99.90;;;;;;5004122;28;20645;-71
2023/01/30 04:07:50;;;;;;;1.80;1.00;;;9.00;99.90;;;;;;5017112;28;20330;-71
2023/01/30 04:10:22;;;;;;;2.83;1.00;;;9.10;99.90;;;;;;4995152;28;20194;-70
2023/01/30 04:12:53;;;;;;;2.83;1.17;;;9.10;99.90;;;;;;5005881;28;20226;-71
2023/01/30 04:15:24;;;;;;;2.40;1.20;;;9.10;99.90;;;;;;5023720;28;20199;-70
2023/01/30 04:17:52;;;;;;;4.43;1.17;;;9.20;99.90;;;;;;5043599;28;20529;-71
2023/01/30 04:20:23;;;;;;;1.93;1.00;;;9.20;99.90;;;;;;5029522;28;20223;-71
2023/01/30 04:22:56;;;;;;;3.63;1.17;;;9.10;99.90;;;;;;5013278;28;20803;-71
2023/01/30 04:25:32;;;;;;;1.83;0.90;;;9.10;99.90;;;;;;5002346;28;20180;-71
2023/01/30 04:28:09;;;;;;;3.20;1.10;;;9.00;99.90;;;;;;5017151;28;20184;-71
2023/01/30 04:30:36;;;;;;;2.27;1.27;;;9.00;99.90;;;;;;5028203;28;20195;-70
2023/01/30 04:33:04;;;;;;;3.73;1.53;;;9.00;99.90;;;;;;5025036;28;20824;-71
2023/01/30 04:35:34;;;;;;;5.30;1.87;;;8.90;99.90;;;;;;5023593;28;20788;-71
2023/01/30 04:38:06;;;;;;;7.20;1.37;;;9.00;99.90;;;;;;5024797;28;20195;-71
2023/01/30 04:40:33;;;;;;;7.33;1.20;;;8.90;99.90;;;;;;5025958;28;20219;-71
2023/01/30 04:43:01;;;;;;;11.27;4.03;;;9.00;99.90;;;;;;5027986;28;20180;-71
2023/01/30 04:45:32;;;;;;;25.03;9.90;;;8.90;99.90;;;;;;5026539;28;20211;-71
2023/01/30 04:48:01;;;;;;;28.17;14.53;;;8.80;99.90;;;;;;5007707;28;20187;-71
2023/01/30 04:50:32;;;;;;;90.30;41.13;;;8.80;99.90;;;;;;5015611;28;20415;-70
2023/01/30 04:53:11;;;;;;;89.57;43.53;;;8.80;99.90;;;;;;5025483;28;20227;-70
2023/01/30 04:55:41;;;;;;;55.43;26.73;;;8.70;99.90;;;;;;5026267;28;20283;-70
2023/01/30 04:58:08;;;;;;;49.03;24.43;;;8.70;99.90;;;;;;5031427;28;20192;-71
2023/01/30 05:00:36;;;;;;;69.57;32.83;;;8.60;99.90;;;;;;5000409;28;20741;-70
2023/01/30 05:03:15;;;;;;;40.83;20.85;;;8.60;99.90;;;;;;5022514;28;20420;-71
2023/01/30 05:05:54;;;;;;;20.67;5.87;;;8.60;99.90;;;;;;5028442;28;20823;-71
2023/01/30 05:08:22;;;;;;;9.37;5.27;;;8.70;99.90;;;;;;5025280;28;20303;-71
2023/01/30 05:10:54;;;;;;;7.60;2.40;;;8.70;99.90;;;;;;5032537;28;20183;-70
2023/01/30 05:13:21;;;;;;;2.50;1.40;;;8.80;99.90;;;;;;5036024;28;20181;-71
2023/01/30 05:16:04;;;;;;;7.03;1.30;;;8.80;99.90;;;;;;4999624;28;20591;-71
2023/01/30 05:18:34;;;;;;;7.43;1.87;;;8.70;99.90;;;;;;5030698;28;20206;-71
2023/01/30 05:21:24;;;;;;;3.93;1.00;;;8.70;99.90;;;;;;5009469;28;20209;-70
2023/01/30 05:23:53;;;;;;;2.67;1.20;;;8.70;99.90;;;;;;5002191;28;20304;-71
2023/01/30 05:26:23;;;;;;;2.70;1.20;;;8.70;99.90;;;;;;5021155;28;20184;-70
2023/01/30 05:29:01;;;;;;;2.03;1.07;;;8.80;99.90;;;;;;5021546;28;20592;-70
2023/01/30 05:31:27;;;;;;;3.97;1.30;;;8.80;99.90;;;;;;5028505;28;20187;-71
2023/01/30 05:34:12;;;;;;;;;;;;;;;;;;;;;
2023/01/30 05:36:44;;;;;;;6.23;1.20;;;9.00;99.90;;;;;;5017356;28;20298;-70
2023/01/30 05:39:16;;;;;;;3.37;0.87;;;9.10;99.90;;;;;;5008104;28;20192;-71
2023/01/30 05:41:49;;;;;;;1.20;1.07;;;9.20;99.90;;;;;;4995486;28;20280;-70
2023/01/30 05:44:19;;;;;;;3.57;1.00;;;9.30;99.90;;;;;;5014899;28;20743;-70
2023/01/30 05:46:52;;;;;;;3.80;1.70;;;9.40;99.90;;;;;;5017406;28;20192;-70
2023/01/30 05:49:24;;;;;;;2.20;1.00;;;9.40;99.90;;;;;;4990142;28;20208;-71
2023/01/30 05:51:59;;;;;;;2.77;1.00;;;9.40;99.90;;;;;;5011462;28;20840;-70
2023/01/30 05:54:29;;;;;;;3.17;1.00;;;9.40;99.90;;;;;;5024417;28;20271;-70
2023/01/30 05:56:58;;;;;;;4.57;1.50;;;9.40;99.90;;;;;;5020952;28;20187;-70
2023/01/30 05:59:26;;;;;;;2.77;1.37;;;9.40;99.90;;;;;;4992595;28;20204;-70
2023/01/30 06:02:03;;;;;;;4.00;1.60;;;9.40;99.90;;;;;;5007583;28;20192;-70
2023/01/30 06:04:34;;;;;;;8.10;1.40;;;9.50;99.90;;;;;;5005211;28;20270;-70
2023/01/30 06:07:01;;;;;;;3.13;1.27;;;9.50;99.90;;;;;;4982510;28;20689;-71
2023/01/30 06:09:29;;;;;;;2.00;1.30;;;9.50;99.90;;;;;;5009276;28;20661;-71
2023/01/30 06:12:02;;;;;;;7.47;1.60;;;9.60;99.90;;;;;;5026341;28;20197;-70
2023/01/30 06:14:36;;;;;;;2.33;1.30;;;9.60;99.90;;;;;;5025878;28;20188;-70
2023/01/30 06:17:05;;;;;;;2.20;1.17;;;9.70;99.90;;;;;;5021776;28;20188;-70
2023/01/30 06:19:33;;;;;;;4.17;1.00;;;9.70;99.90;;;;;;5026892;28;20790;-70
2023/01/30 06:22:11;;;;;;;4.17;1.33;;;9.80;99.90;;;;;;5027481;28;20649;-70
2023/01/30 06:24:38;;;;;;;4.20;1.30;;;9.90;99.90;;;;;;5010635;28;20181;-70
2023/01/30 06:27:19;;;;;;;2.50;1.20;;;9.90;99.90;;;;;;5032506;28;20180;-70
2023/01/30 06:29:54;;;;;;;2.20;1.20;;;10.00;99.90;;;;;;5016499;28;20184;-70
2023/01/30 06:32:25;;;;;;;5.83;1.40;;;10.10;99.90;;;;;;5004676;28;20275;-70
2023/01/30 06:34:54;;;;;;;5.03;1.43;;;10.20;99.90;;;;;;5016557;28;20283;-70
2023/01/30 06:37:22;;;;;;;2.50;1.27;;;10.30;99.90;;;;;;5023447;28;20200;-70
2023/01/30 06:39:54;;;;;;;4.83;1.40;;;10.40;99.90;;;;;;5005449;28;20216;-70
2023/01/30 06:42:20;;;;;;;3.90;1.33;;;10.40;99.90;;;;;;5018087;28;20287;-70
2023/01/30 06:44:58;;;;;;;3.57;1.20;;;10.60;99.90;;;;;;4999477;28;20203;-70
2023/01/30 06:47:25;;;;;;;7.37;2.20;;;10.70;99.90;;;;;;5008873;28;20188;-70
2023/01/30 06:49:53;;;;;;;6.70;1.60;;;10.70;99.90;;;;;;5016375;28;20212;-70
2023/01/30 06:52:40;;;;;;;4.97;1.70;;;10.70;99.90;;;;;;5003080;28;20714;-70
2023/01/30 06:55:19;;;;;;;3.13;1.60;;;10.70;99.90;;;;;;5026436;28;20187;-70
2023/01/30 06:57:49;;;;;;;3.80;1.80;;;10.60;99.90;;;;;;5020697;28;20199;-71
2023/01/30 07:00:24;;;;;;;3.97;1.63;;;10.60;99.90;;;;;;5024858;28;20207;-70
2023/01/30 07:02:58;;;;;;;4.93;1.53;;;10.60;99.90;;;;;;5019884;28;20596;-70
2023/01/30 07:05:32;;;;;;;2.70;1.50;;;10.60;99.90;;;;;;4990082;28;20219;-69
2023/01/30 07:07:59;;;;;;;3.37;1.67;;;10.60;99.90;;;;;;5018675;28;20219;-70
2023/01/30 07:10:31;;;;;;;4.90;1.70;;;10.50;99.90;;;;;;5016555;28;20238;-70
2023/01/30 07:12:59;;;;;;;2.27;1.40;;;10.50;99.90;;;;;;5020966;28;20279;-70
2023/01/30 07:15:33;;;;;;;1.73;1.27;;;10.40;99.90;;;;;;5014891;28;20210;-70
2023/01/30 07:18:00;;;;;;;1.50;1.30;;;10.30;99.90;;;;;;5008869;28;20188;-70
2023/01/30 07:20:35;;;;;;;1.13;1.03;;;10.30;99.90;;;;;;4983220;28;20216;-70
2023/01/30 07:23:03;;;;;;;3.23;1.30;;;10.20;99.90;;;;;;5017051;28;20554;-70
2023/01/30 07:25:33;;;;;;;2.47;1.17;;;10.20;99.90;;;;;;4995052;28;20279;-70
2023/01/30 07:28:04;;;;;;;1.77;1.40;;;10.10;99.90;;;;;;5012224;28;20188;-70
2023/01/30 07:30:34;;;;;;;3.27;1.40;;;10.10;99.90;;;;;;4993758;28;20192;-71
2023/01/30 07:33:04;;;;;;;4.30;1.43;;;10.10;99.90;;;;;;4995540;28;20224;-70
2023/01/30 07:35:36;;;;;;;1.90;1.37;;;10.10;99.90;;;;;;5015385;28;20569;-70
2023/01/30 07:38:04;;;;;;;1.83;1.40;;;10.20;99.90;;;;;;5014218;28;20196;-70
2023/01/30 07:40:34;;;;;;;2.57;1.50;;;10.30;99.90;;;;;;5008945;28;20247;-70
2023/01/30 07:43:11;;;;;;;2.87;1.60;;;10.30;99.90;;;;;;4995234;28;20537;-70
2023/01/30 07:46:04;;;;;;;3.17;1.87;;;10.30;99.90;;;;;;5016501;28;20299;-70
2023/01/30 07:48:30;;;;;;;3.27;2.00;;;10.20;99.90;;;;;;5018274;28;20184;-70
2023/01/30 07:50:56;;;;;;;3.10;2.20;;;10.30;99.90;;;;;;5014771;28;20204;-70
2023/01/30 07:53:23;;;;;;;5.03;2.70;;;10.40;99.90;;;;;;5014797;28;20201;-70
2023/01/30 07:55:50;;;;;;;4.53;2.30;;;10.40;99.90;;;;;;5018495;28;20261;-70
2023/01/30 07:58:20;;;;;;;3.30;2.57;;;10.50;99.90;;;;;;5017762;28;20619;-70
2023/01/30 08:00:47;;;;;;;3.07;2.20;;;10.50;99.90;;;;;;5015804;28;20216;-71
2023/01/30 08:03:16;;;;;;;4.70;2.17;;;10.60;99.90;;;;;;4988432;28;20180;-70
2023/01/30 08:05:48;;;;;;;6.87;2.33;;;10.70;99.90;;;;;;5004580;28;20196;-70
2023/01/30 08:08:19;;;;;;;2.73;2.33;;;10.80;99.90;;;;;;5016201;28;20275;-70
2023/01/30 08:10:48;;;;;;;3.50;2.37;;;10.90;99.90;;;;;;5019742;28;20180;-70
2023/01/30 08:13:15;;;;;;;3.30;2.50;;;11.00;99.90;;;;;;5020687;28;20756;-70
2023/01/30 08:15:42;;;;;;;9.50;2.33;;;11.00;99.90;;;;;;5014726;28;20270;-70
2023/01/30 08:18:08;;;;;;;5.30;2.67;;;11.10;99.90;;;;;;5014247;28;20188;-70
2023/01/30 08:20:36;;;;;;;4.00;2.37;;;11.20;99.90;;;;;;5021310;28;20239;-70
2023/01/30 08:23:02;;;;;;;2.87;1.93;;;11.20;99.90;;;;;;4996988;28;22677;-70
2023/01/30 08:25:35;;;;;;;4.67;2.17;;;11.20;99.90;;;;;;5015529;28;20183;-70
2023/01/30 08:28:03;;;;;;;4.27;1.97;;;11.30;99.90;;;;;;5003882;28;20189;-70
2023/01/30 08:30:34;;;;;;;4.00;2.20;;;11.30;99.90;;;;;;5001813;28;20272;-70
2023/01/30 08:33:00;;;;;;;5.70;2.20;;;11.40;99.90;;;;;;5001451;28;20188;-70
2023/01/30 08:35:30;;;;;;;5.37;2.27;;;11.40;99.90;;;;;;5011913;28;20545;-71
2023/01/30 08:37:58;;;;;;;6.47;2.40;;;11.40;99.90;;;;;;5023421;28;20207;-71
2023/01/30 08:40:28;;;;;;;3.47;2.03;;;11.40;99.90;;;;;;4999703;28;20273;-70
2023/01/30 08:42:54;;;;;;;7.50;2.30;;;11.50;99.90;;;;;;5005562;28;20282;-70
2023/01/30 08:45:22;;;;;;;4.60;1.87;;;11.60;99.90;;;;;;5020852;28;20208;-70
2023/01/30 08:47:49;;;;;;;4.90;2.30;;;11.60;99.90;;;;;;5005323;28;20285;-70
2023/01/30 08:50:23;;;;;;;4.90;2.13;;;11.60;99.90;;;;;;4993856;28;20228;-70
2023/01/30 08:52:53;;;;;;;2.03;1.47;;;11.70;99.90;;;;;;5028670;28;20895;-70
2023/01/30 08:55:22;;;;;;;8.67;2.13;;;11.70;99.90;;;;;;5014638;28;20284;-70
2023/01/30 08:57:49;;;;;;;3.40;1.90;;;11.80;99.90;;;;;;5014362;28;20196;-70
2023/01/30 09:00:16;;;;;;;4.77;2.10;;;11.70;99.90;;;;;;5005473;28;20259;-70
2023/01/30 09:02:43;;;;;;;4.57;2.27;;;11.70;99.90;;;;;;5021367;28;20184;-70
2023/01/30 09:05:11;;;;;;;4.37;2.13;;;11.70;99.90;;;;;;5016907;28;20212;-70
2023/01/30 09:07:39;;;;;;;7.00;2.67;;;11.60;99.90;;;;;;5015638;28;20191;-70
2023/01/30 09:10:06;;;;;;;6.47;2.10;;;11.60;99.90;;;;;;5003488;28;20184;-70
2023/01/30 09:12:33;;;;;;;8.50;2.20;;;11.60;99.90;;;;;;5006860;28;20200;-70
2023/01/30 09:15:02;;;;;;;6.10;2.50;;;11.60;99.90;;;;;;5013378;28;20216;-70
2023/01/30 09:17:28;;;;;;;4.73;2.37;;;11.60;99.90;;;;;;5022318;28;20192;-70
2023/01/30 09:19:55;;;;;;;6.73;2.50;;;11.60;99.90;;;;;;5011594;28;20645;-70
2023/01/30 09:22:25;;;;;;;5.50;1.90;;;11.60;99.90;;;;;;5021208;28;20701;-70
2023/01/30 09:24:51;;;;;;;3.37;2.10;;;11.60;99.90;;;;;;5019005;28;20249;-71
2023/01/30 09:27:20;;;;;;;1.70;1.37;;;11.60;99.90;;;;;;4996109;28;20180;-70
2023/01/30 09:29:51;;;;;;;2.33;1.70;;;11.60;99.90;;;;;;5015186;28;20576;-70
2023/01/30 09:32:19;;;;;;;3.47;1.83;;;11.60;99.90;;;;;;5015080;28;20188;-70
2023/01/30 09:34:49;;;;;;;3.40;1.70;;;11.80;99.90;;;;;;5005224;28;20203;-70
2023/01/30 09:37:17;;;;;;;6.00;1.90;;;11.90;99.90;;;;;;4999996;28;20192;-70
2023/01/30 09:39:47;;;;;;;4.30;1.97;;;12.00;99.90;;;;;;5021931;28;20216;-70
2023/01/30 09:43:10;;;;;;;3.90;2.30;;;12.10;99.90;;;;;;5015602;28;20188;-70
2023/01/30 09:45:42;;;;;;;5.90;2.57;;;12.10;99.90;;;;;;5003345;28;20201;-70
2023/01/30 09:48:46;;;;;;;2.53;1.90;;;11.80;99.90;;;;;;5014474;28;20197;-70
2023/01/30 09:51:36;;;;;;;8.03;2.60;;;11.60;99.90;;;;;;4990678;28;20193;-70
2023/01/30 09:54:23;;;;;;;6.60;2.73;;;11.40;99.90;;;;;;5002752;28;20211;-70
2023/01/30 09:57:08;;;;;;;4.10;2.37;;;11.30;99.90;;;;;;5015102;28;20196;-70
2023/01/30 10:00:01;;;;;;;3.93;2.53;;;11.20;99.90;;;;;;4993944;28;20208;-70
2023/01/30 10:03:20;;;;;;;6.07;2.40;;;11.20;99.90;;;;;;5018041;28;20195;-70
2023/01/30 10:05:54;;;;;;;7.10;2.37;;;11.10;99.90;;;;;;4998118;28;20669;-70
2023/01/30 10:08:53;;;;;;;6.57;2.70;;;11.10;99.90;;;;;;5019898;28;20195;-70
2023/01/30 10:11:56;;;;;;;3.23;2.27;;;11.00;99.90;;;;;;5017030;28;20190;-70
2023/01/30 10:14:50;;;;;;;10.53;2.40;;;10.90;99.90;;;;;;5003560;28;20190;-70
2023/01/30 10:18:01;;;;;;;2.73;2.47;;;10.90;99.90;;;;;;4996355;28;20270;-70
2023/01/30 10:20:42;;;;;;;7.97;2.60;;;10.90;99.90;;;;;;4992704;28;20204;-70
2023/01/30 10:24:02;;;;;;;3.97;2.40;;;11.00;99.90;;;;;;4999095;28;20271;-70
2023/01/30 10:26:39;;;;;;;5.03;2.63;;;11.00;99.90;;;;;;5013791;28;20191;-70
2023/01/30 10:29:27;;;;;;;4.27;2.40;;;11.00;99.90;;;;;;4996471;28;20180;-70
2023/01/30 10:32:07;;;;;;;6.60;2.73;;;11.20;99.90;;;;;;4997460;28;20189;-70
2023/01/30 10:35:05;;;;;;;4.07;2.60;;;11.40;99.90;;;;;;5017199;28;21085;-70
2023/01/30 10:37:47;;;;;;;4.13;2.50;;;11.50;99.90;;;;;;5006285;28;20227;-70
2023/01/30 10:40:34;;;;;;;4.67;2.30;;;11.60;99.90;;;;;;4990915;28;20294;-70
2023/01/30 10:43:26;;;;;;;3.77;2.30;;;11.90;99.90;;;;;;5011933;28;20238;-70
2023/01/30 10:46:07;;;;;;;4.33;2.27;;;12.10;99.90;;;;;;4993536;28;20214;-70
2023/01/30 10:49:08;;;;;;;2.40;2.00;;;12.30;99.90;;;;;;4996606;28;20188;-71
2023/01/30 10:51:43;;;;;;;6.23;1.80;;;12.40;99.90;;;;;;4994583;28;20306;-70
2023/01/30 10:54:55;;;;;;;4.77;1.30;;;12.50;99.90;;;;;;4993861;28;20278;-70
2023/01/30 10:58:18;;;;;;;1.77;1.10;;;12.80;99.90;;;;;;5012462;28;20605;-70
2023/01/30 11:01:19;;;;;;;1.10;0.80;;;13.00;99.90;;;;;;4995413;28;20215;-70
2023/01/30 11:04:38;;;;;;;2.33;0.63;;;13.10;99.90;;;;;;5018868;28;20569;-70
2023/01/30 11:07:08;;;;;;;2.73;0.80;;;13.10;99.90;;;;;;5003831;28;20526;-70
2023/01/30 11:09:43;;;;;;;1.37;0.70;;;13.10;99.90;;;;;;5018784;28;20688;-70
2023/01/30 11:12:25;;;;;;;2.13;0.90;;;13.20;99.90;;;;;;5000858;28;20187;-70
2023/01/30 11:15:07;;;;;;;2.37;1.00;;;13.30;99.90;;;;;;4982097;28;20861;-70
2023/01/30 11:17:42;;;;;;;2.00;0.80;;;13.70;99.90;;;;;;5015347;28;20266;-70
2023/01/30 11:20:23;;;;;;;1.37;0.70;;;13.90;99.90;;;;;;5001044;28;20200;-70
2023/01/30 11:23:08;;;;;;;2.23;0.80;;;14.20;99.90;;;;;;5012644;28;20191;-70
2023/01/30 11:26:01;;;;;;;2.30;0.70;;;14.20;99.90;;;;;;5017589;28;20275;-70
2023/01/30 11:28:48;;;;;;;;;;;;;;;;;;;;;
2023/01/30 11:31:32;;;;;;;0.90;0.80;;;14.00;99.90;;;;;;5010012;28;20247;-70
2023/01/30 11:34:15;;;;;;;3.63;1.10;;;14.00;99.90;;;;;;5016479;28;20275;-70
2023/01/30 11:36:51;;;;;;;1.70;0.80;;;13.90;99.90;;;;;;5014881;28;20234;-70
2023/01/30 11:39:28;;;;;;;3.77;0.87;;;13.80;99.90;;;;;;4983534;28;20199;-70
2023/01/30 11:42:04;;;;;;;1.80;0.60;;;13.70;99.90;;;;;;5013815;28;20290;-70
2023/01/30 11:44:49;;;;;;;3.43;0.80;;;13.60;99.90;;;;;;5008938;28;20183;-70
2023/01/30 11:47:36;;;;;;;6.60;0.90;;;13.30;99.90;;;;;;4991983;28;20223;-70
2023/01/30 11:50:04;;;;;;;2.53;1.00;;;13.30;99.90;;;;;;5020483;28;20200;-70
2023/01/30 11:52:38;;;;;;;3.10;1.00;;;13.30;99.90;;;;;;4994467;28;20208;-70
2023/01/30 11:55:15;;;;;;;2.30;0.90;;;13.40;99.90;;;;;;4987439;28;20227;-71
2023/01/30 11:57:57;;;;;;;4.13;1.00;;;13.50;99.90;;;;;;4998364;28;20192;-70
2023/01/30 12:00:49;;;;;;;2.23;1.00;;;13.60;99.90;;;;;;5001810;28;21253;-70
2023/01/30 12:03:27;;;;;;;3.60;0.90;;;13.70;99.90;;;;;;5012206;28;20189;-70
2023/01/30 12:06:17;;;;;;;1.93;1.20;;;13.60;99.90;;;;;;5016716;28;20198;-71
2023/01/30 12:08:53;;;;;;;1.77;1.00;;;13.70;99.90;;;;;;5004300;28;20230;-70
2023/01/30 12:11:43;;;;;;;1.13;1.00;;;13.80;99.90;;;;;;4985847;28;20775;-70
2023/01/30 12:14:41;;;;;;;1.20;0.80;;;13.90;99.90;;;;;;5010537;28;20688;-70
2023/01/30 12:17:33;;;;;;;1.07;0.70;;;13.90;99.90;;;;;;4996677;28;20184;-70
2023/01/30 12:20:40;;;;;;;1.80;0.70;;;13.90;99.90;;;;;;5000618;28;20281;-70
2023/01/30 12:24:25;;;;;;;1.33;0.60;;;13.90;99.90;;;;;;5003535;28;20257;-70
2023/01/30 12:27:21;;;;;;;2.40;1.10;;;13.90;99.90;;;;;;4890973;28;20246;-70
2023/01/30 12:30:17;;;;;;;0.60;0.60;;;13.90;99.90;;;;;;4998643;28;20917;-70
2023/01/30 12:32:47;;;;;;;1.30;0.60;;;13.90;99.90;;;;;;4999222;28;20204;-71
2023/01/30 12:35:31;;;;;;;2.70;1.00;;;13.80;99.90;;;;;;5004889;28;20208;-71
2023/01/30 12:38:36;;;;;;;;;;;;;;;;;;;;;
2023/01/30 12:41:30;;;;;;;2.33;0.80;;;13.90;99.90;;;;;;5013348;28;20673;-70
2023/01/30 12:44:40;;;;;;;1.97;0.77;;;13.70;99.90;;;;;;5015552;28;20181;-70
2023/01/30 12:47:25;;;;;;;2.13;0.90;;;13.50;99.90;;;;;;5003652;28;20215;-70
2023/01/30 12:50:28;;;;;;;1.43;0.90;;;13.30;99.90;;;;;;5019874;28;20192;-70
2023/01/30 12:53:28;;;;;;;1.00;0.77;;;13.20;99.90;;;;;;5018045;28;20675;-70
2023/01/30 12:56:23;;;;;;;1.97;0.90;;;13.20;99.90;;;;;;5003323;28;20197;-70
2023/01/30 12:59:06;;;;;;;3.50;1.40;;;13.20;99.90;;;;;;5002001;28;20219;-70
2023/01/30 13:02:17;;;;;;;3.57;1.20;;;13.10;99.90;;;;;;5025069;28;20215;-70
2023/01/30 13:05:27;;;;;;;2.60;1.23;;;13.10;99.90;;;;;;5026825;28;20263;-70
2023/01/30 13:08:14;;;;;;;2.70;1.13;;;13.10;99.90;;;;;;4988863;28;20180;-70
2023/01/30 13:11:04;;;;;;;3.00;1.00;;;13.00;99.90;;;;;;5024919;28;20200;-70
2023/01/30 13:14:04;;;;;;;2.57;1.03;;;12.90;99.90;;;;;;5004363;28;20208;-70
2023/01/30 13:17:11;;;;;;;2.90;1.10;;;12.90;99.90;;;;;;5005210;28;20287;-70
2023/01/30 13:20:14;;;;;;;3.57;1.73;;;12.80;99.90;;;;;;5006947;28;20501;-70
2023/01/30 13:22:58;;;;;;;4.43;1.40;;;12.80;99.90;;;;;;5018221;28;20199;-70
2023/01/30 13:26:19;;;;;;;3.53;1.10;;;12.70;99.90;;;;;;5015167;28;20202;-70
2023/01/30 13:28:58;;;;;;;2.80;1.10;;;12.70;99.90;;;;;;5019084;28;20243;-70
2023/01/30 13:31:35;;;;;;;2.70;1.20;;;12.60;99.90;;;;;;5017258;28;20188;-70
2023/01/30 13:34:30;;;;;;;6.67;1.40;;;12.50;99.90;;;;;;5021618;28;20249;-70
2023/01/30 13:37:22;;;;;;;2.53;1.47;;;12.50;99.90;;;;;;5024188;28;20224;-70
2023/01/30 13:40:17;;;;;;;1.53;1.20;;;12.50;99.90;;;;;;5021522;28;20269;-70
2023/01/30 13:43:24;;;;;;;1.67;1.30;;;12.40;99.90;;;;;;5000306;28;20565;-70
2023/01/30 13:45:58;;;;;;;4.23;1.00;;;12.40;99.90;;;;;;5023108;28;20194;-70
2023/01/30 13:48:56;;;;;;;4.10;1.50;;;12.40;99.90;;;;;;5014446;28;20215;-70
2023/01/30 13:56:09;;;;;;;2.40;1.20;;;12.40;99.90;;;;;;5022562;28;20827;-70
2023/01/30 13:59:21;;;;;;;1.83;1.20;;;12.40;99.90;;;;;;5015483;28;20192;-70
2023/01/30 14:02:07;;;;;;;2.37;1.07;;;12.40;99.90;;;;;;5023674;28;20258;-70
2023/01/30 14:04:39;;;;;;;2.20;1.37;;;12.40;99.90;;;;;;5000135;28;20176;-70